NJE221 LFMN-EBAW
Flight info
| Callsign | NJE221 |
|---|---|
| Flight time | 1h 30m |
| Altitude | 34000 |
| Route | IRMAR DCT VANAS N853 MOLUS T330 GILIR DCT GIVOR V36 AKELU N852 LNO |
| Aircraft | C700/M-SBDGHM1RWXY/LB2 |
Departure
| Time | 2026-04-23 18:24 |
|---|---|
| Airport | Nice-Côte d'Azur Airport (LFMN) |
Arrival
| Time | 2026-04-23 19:54 |
|---|---|
| Airport | Antwerp International Airport (Deurne) (EBAW) |
| Time | Latitude | Longitude | Altitude | Speed | Heading |
|---|---|---|---|---|---|
| 2026-04-23 18:10 | 43.67149 | 7.22735 | 15 ft | 0 kts | 315° |
| 2026-04-23 18:19 | 43.67148 | 7.22708 | 17 ft | 7 kts | 232° |
| 2026-04-23 18:19 | 43.67089 | 7.22625 | 15 ft | 15 kts | 223° |
| 2026-04-23 18:19 | 43.66984 | 7.22555 | 16 ft | 15 kts | 211° |
| 2026-04-23 18:20 | 43.66899 | 7.22444 | 15 ft | 19 kts | 225° |
| 2026-04-23 18:20 | 43.66807 | 7.22407 | 15 ft | 15 kts | 140° |
| 2026-04-23 18:20 | 43.66719 | 7.22525 | 14 ft | 19 kts | 135° |
| 2026-04-23 18:20 | 43.66646 | 7.22626 | 15 ft | 11 kts | 135° |
| 2026-04-23 18:21 | 43.66578 | 7.22644 | 15 ft | 13 kts | 231° |
| 2026-04-23 18:21 | 43.66567 | 7.22644 | 16 ft | 1 kts | 128° |
| 2026-04-23 18:21 | 43.66568 | 7.22686 | 16 ft | 0 kts | 82° |
| 2026-04-23 18:22 | 43.66565 | 7.22730 | 16 ft | 11 kts | 112° |
| 2026-04-23 18:22 | 43.66489 | 7.22744 | 19 ft | 13 kts | 220° |
| 2026-04-23 18:22 | 43.66471 | 7.22720 | 16 ft | 0 kts | 224° |
| 2026-04-23 18:23 | 43.65744 | 7.21717 | 274 ft | 145 kts | 225° |
| 2026-04-23 18:24 | 43.64040 | 7.19397 | 2396 ft | 194 kts | 225° |
| 2026-04-23 18:24 | 43.63039 | 7.18013 | 3791 ft | 213 kts | 225° |
| 2026-04-23 18:24 | 43.61776 | 7.16768 | 5169 ft | 236 kts | 205° |
| 2026-04-23 18:25 | 43.58321 | 7.16486 | 8115 ft | 272 kts | 160° |
| 2026-04-23 18:25 | 43.56662 | 7.17812 | 9669 ft | 278 kts | 136° |
| 2026-04-23 18:25 | 43.55446 | 7.19828 | 11409 ft | 280 kts | 117° |
| 2026-04-23 18:25 | 43.54764 | 7.22385 | 12790 ft | 294 kts | 103° |
| 2026-04-23 18:26 | 43.54250 | 7.25203 | 14183 ft | 311 kts | 102° |
| 2026-04-23 18:26 | 43.53873 | 7.28158 | 15731 ft | 314 kts | 94° |
| 2026-04-23 18:26 | 43.53908 | 7.31149 | 17235 ft | 322 kts | 83° |
| 2026-04-23 18:26 | 43.54439 | 7.34282 | 18349 ft | 341 kts | 70° |
| 2026-04-23 18:27 | 43.55257 | 7.37309 | 19660 ft | 343 kts | 69° |
| 2026-04-23 18:27 | 43.56107 | 7.40434 | 20744 ft | 352 kts | 69° |
| 2026-04-23 18:27 | 43.57027 | 7.43581 | 21825 ft | 358 kts | 62° |
| 2026-04-23 18:27 | 43.58668 | 7.46172 | 22918 ft | 365 kts | 37° |
| 2026-04-23 18:28 | 43.60995 | 7.47606 | 23910 ft | 375 kts | 13° |
| 2026-04-23 18:28 | 43.63616 | 7.47557 | 24789 ft | 385 kts | 348° |
| 2026-04-23 18:28 | 43.66057 | 7.45985 | 25673 ft | 394 kts | 324° |
| 2026-04-23 18:28 | 43.67979 | 7.43240 | 26538 ft | 402 kts | 309° |
| 2026-04-23 18:29 | 43.69578 | 7.40032 | 27375 ft | 409 kts | 303° |
| 2026-04-23 18:29 | 43.71090 | 7.36678 | 28213 ft | 415 kts | 303° |
| 2026-04-23 18:29 | 43.72722 | 7.33358 | 29031 ft | 420 kts | 307° |
| 2026-04-23 18:29 | 43.74534 | 7.30158 | 29851 ft | 425 kts | 310° |
| 2026-04-23 18:30 | 43.76388 | 7.26939 | 30581 ft | 431 kts | 311° |
| 2026-04-23 18:30 | 43.78559 | 7.24071 | 31282 ft | 433 kts | 322° |
| 2026-04-23 18:30 | 43.81000 | 7.21630 | 31959 ft | 436 kts | 326° |
| 2026-04-23 18:30 | 43.83499 | 7.19192 | 32596 ft | 440 kts | 326° |
| 2026-04-23 18:31 | 43.86020 | 7.16749 | 33224 ft | 445 kts | 326° |
| 2026-04-23 18:31 | 43.88569 | 7.14278 | 33811 ft | 449 kts | 326° |
| 2026-04-23 18:31 | 43.91141 | 7.11773 | 34178 ft | 458 kts | 326° |
| 2026-04-23 18:31 | 43.93791 | 7.09186 | 34182 ft | 473 kts | 326° |
| 2026-04-23 18:32 | 43.96505 | 7.06537 | 34190 ft | 479 kts | 326° |
| 2026-04-23 18:32 | 44.01944 | 7.01222 | 34188 ft | 477 kts | 326° |
| 2026-04-23 18:33 | 44.07384 | 6.95893 | 34186 ft | 481 kts | 326° |
| 2026-04-23 18:33 | 44.13015 | 6.90912 | 34179 ft | 476 kts | 336° |
| 2026-04-23 18:34 | 44.19301 | 6.88299 | 34183 ft | 472 kts | 353° |
| 2026-04-23 18:34 | 44.25850 | 6.87311 | 34188 ft | 475 kts | 355° |
| 2026-04-23 18:35 | 44.32407 | 6.86307 | 34186 ft | 473 kts | 355° |
| 2026-04-23 18:35 | 44.38923 | 6.85326 | 34187 ft | 470 kts | 355° |
| 2026-04-23 18:36 | 44.45412 | 6.84338 | 34183 ft | 474 kts | 355° |
| 2026-04-23 18:36 | 44.51993 | 6.83337 | 34185 ft | 479 kts | 355° |
| 2026-04-23 18:37 | 44.58607 | 6.82326 | 34187 ft | 476 kts | 355° |
| 2026-04-23 18:37 | 44.65166 | 6.81323 | 34184 ft | 474 kts | 355° |
| 2026-04-23 18:38 | 44.71758 | 6.80312 | 34185 ft | 478 kts | 355° |
| 2026-04-23 18:38 | 44.78364 | 6.79296 | 34191 ft | 476 kts | 355° |
| 2026-04-23 18:39 | 44.84937 | 6.78712 | 34183 ft | 473 kts | 360° |
| 2026-04-23 18:39 | 44.91531 | 6.78295 | 34185 ft | 476 kts | 359° |
| 2026-04-23 18:40 | 44.98156 | 6.77844 | 34182 ft | 476 kts | 359° |
| 2026-04-23 18:40 | 45.04739 | 6.77419 | 34188 ft | 472 kts | 359° |
| 2026-04-23 18:41 | 45.11312 | 6.76979 | 34190 ft | 474 kts | 359° |
| 2026-04-23 18:41 | 45.17901 | 6.76544 | 34204 ft | 475 kts | 359° |
| 2026-04-23 18:42 | 45.24508 | 6.76103 | 34207 ft | 476 kts | 359° |
| 2026-04-23 18:42 | 45.31125 | 6.75663 | 34214 ft | 475 kts | 359° |
| 2026-04-23 18:43 | 45.37698 | 6.75222 | 34207 ft | 471 kts | 359° |
| 2026-04-23 18:43 | 45.44220 | 6.74788 | 34220 ft | 474 kts | 359° |
| 2026-04-23 18:44 | 45.50830 | 6.74338 | 34221 ft | 475 kts | 359° |
| 2026-04-23 18:44 | 45.57413 | 6.73885 | 34221 ft | 472 kts | 359° |
| 2026-04-23 18:45 | 45.63963 | 6.73439 | 34225 ft | 472 kts | 360° |
| 2026-04-23 18:45 | 45.70551 | 6.72985 | 34228 ft | 476 kts | 360° |
| 2026-04-23 18:46 | 45.77143 | 6.72530 | 34231 ft | 472 kts | 360° |
| 2026-04-23 18:46 | 45.83704 | 6.72080 | 34228 ft | 472 kts | 0° |
| 2026-04-23 18:47 | 45.90276 | 6.71637 | 34229 ft | 473 kts | 0° |
| 2026-04-23 18:47 | 45.96900 | 6.71187 | 34232 ft | 480 kts | 360° |
| 2026-04-23 18:48 | 46.03534 | 6.70732 | 34231 ft | 474 kts | 0° |
| 2026-04-23 18:48 | 46.10165 | 6.70283 | 34230 ft | 479 kts | 0° |
| 2026-04-23 18:49 | 46.16815 | 6.69825 | 34236 ft | 477 kts | 0° |
| 2026-04-23 18:49 | 46.23437 | 6.69378 | 34231 ft | 477 kts | 0° |
| 2026-04-23 18:50 | 46.28963 | 6.69001 | 34232 ft | 480 kts | 0° |
| 2026-04-23 18:50 | 46.36730 | 6.68468 | 34230 ft | 475 kts | 0° |
| 2026-04-23 18:51 | 46.43333 | 6.67626 | 34230 ft | 481 kts | 351° |
| 2026-04-23 18:51 | 46.49646 | 6.64265 | 34238 ft | 488 kts | 336° |
| 2026-04-23 18:52 | 46.55716 | 6.59975 | 34240 ft | 489 kts | 336° |
| 2026-04-23 18:52 | 46.61814 | 6.55678 | 34238 ft | 486 kts | 336° |
| 2026-04-23 18:53 | 46.67880 | 6.51381 | 34245 ft | 485 kts | 336° |
| 2026-04-23 18:53 | 46.73975 | 6.47061 | 34248 ft | 491 kts | 336° |
| 2026-04-23 18:54 | 46.80128 | 6.42681 | 34250 ft | 490 kts | 336° |
| 2026-04-23 18:54 | 46.86238 | 6.38327 | 34243 ft | 489 kts | 336° |
| 2026-04-23 18:55 | 46.92367 | 6.33945 | 34246 ft | 492 kts | 336° |
| 2026-04-23 18:55 | 46.98527 | 6.29529 | 34253 ft | 491 kts | 336° |
| 2026-04-23 18:56 | 47.03676 | 6.26131 | 34243 ft | 486 kts | 344° |
| 2026-04-23 18:56 | 47.08063 | 6.24659 | 34239 ft | 483 kts | 355° |
| 2026-04-23 18:56 | 47.11409 | 6.24406 | 34234 ft | 480 kts | 4° |
| 2026-04-23 18:57 | 47.18075 | 6.25012 | 34238 ft | 480 kts | 7° |
| 2026-04-23 18:57 | 47.23588 | 6.25514 | 34238 ft | 476 kts | 7° |
| 2026-04-23 18:58 | 47.30199 | 6.26137 | 34241 ft | 477 kts | 7° |
| 2026-04-23 18:58 | 47.36842 | 6.26756 | 34243 ft | 480 kts | 7° |
| 2026-04-23 18:59 | 47.43501 | 6.27380 | 34242 ft | 478 kts | 7° |
| 2026-04-23 18:59 | 47.50116 | 6.28002 | 34240 ft | 476 kts | 7° |
| 2026-04-23 19:00 | 47.56747 | 6.28628 | 34237 ft | 479 kts | 7° |
| 2026-04-23 19:00 | 47.63408 | 6.29257 | 34231 ft | 481 kts | 7° |
| 2026-04-23 19:01 | 47.70120 | 6.29893 | 34234 ft | 483 kts | 7° |
| 2026-04-23 19:01 | 47.76802 | 6.30525 | 34231 ft | 479 kts | 7° |
| 2026-04-23 19:02 | 47.83474 | 6.31164 | 34251 ft | 483 kts | 7° |
| 2026-04-23 19:02 | 47.90196 | 6.31803 | 34258 ft | 484 kts | 7° |
| 2026-04-23 19:03 | 47.96884 | 6.32443 | 34262 ft | 480 kts | 7° |
| 2026-04-23 19:03 | 48.03550 | 6.33084 | 34260 ft | 482 kts | 7° |
| 2026-04-23 19:04 | 48.10263 | 6.33729 | 34264 ft | 484 kts | 7° |
| 2026-04-23 19:04 | 48.16980 | 6.34375 | 34265 ft | 482 kts | 7° |
| 2026-04-23 19:05 | 48.23653 | 6.35021 | 34263 ft | 480 kts | 8° |
| 2026-04-23 19:05 | 48.30338 | 6.35671 | 34265 ft | 483 kts | 8° |
| 2026-04-23 19:06 | 48.37058 | 6.36322 | 34264 ft | 484 kts | 8° |
| 2026-04-23 19:06 | 48.43756 | 6.36975 | 34264 ft | 481 kts | 8° |
| 2026-04-23 19:07 | 48.50429 | 6.37628 | 34267 ft | 481 kts | 8° |
| 2026-04-23 19:07 | 48.57144 | 6.38287 | 34268 ft | 485 kts | 8° |
| 2026-04-23 19:07 | 48.60510 | 6.38615 | 33959 ft | 484 kts | 8° |
| 2026-04-23 19:08 | 48.63845 | 6.38940 | 33328 ft | 474 kts | 8° |
| 2026-04-23 19:08 | 48.67105 | 6.39260 | 32708 ft | 466 kts | 8° |
| 2026-04-23 19:08 | 48.70334 | 6.39592 | 32096 ft | 467 kts | 8° |
| 2026-04-23 19:08 | 48.73601 | 6.39938 | 31478 ft | 473 kts | 8° |
| 2026-04-23 19:09 | 48.76894 | 6.40273 | 30854 ft | 475 kts | 8° |
| 2026-04-23 19:09 | 48.80197 | 6.40602 | 30207 ft | 476 kts | 8° |
| 2026-04-23 19:09 | 48.83479 | 6.40935 | 29579 ft | 469 kts | 8° |
| 2026-04-23 19:09 | 48.86702 | 6.41266 | 28965 ft | 461 kts | 7° |
| 2026-04-23 19:10 | 48.89883 | 6.41595 | 28361 ft | 455 kts | 7° |
| 2026-04-23 19:10 | 48.93028 | 6.41914 | 27762 ft | 452 kts | 7° |
| 2026-04-23 19:10 | 48.96160 | 6.42226 | 27168 ft | 450 kts | 7° |
| 2026-04-23 19:10 | 48.99270 | 6.42537 | 26576 ft | 446 kts | 7° |
| 2026-04-23 19:11 | 49.02346 | 6.42850 | 25992 ft | 440 kts | 7° |
| 2026-04-23 19:11 | 49.05388 | 6.43159 | 25412 ft | 435 kts | 7° |
| 2026-04-23 19:11 | 49.08390 | 6.43463 | 24844 ft | 431 kts | 6° |
| 2026-04-23 19:11 | 49.11386 | 6.43767 | 24331 ft | 434 kts | 6° |
| 2026-04-23 19:12 | 49.13391 | 6.43974 | 24301 ft | 442 kts | 6° |
| 2026-04-23 19:12 | 49.17552 | 6.44407 | 24304 ft | 450 kts | 6° |
| 2026-04-23 19:12 | 49.20669 | 6.44726 | 24306 ft | 449 kts | 6° |
| 2026-04-23 19:12 | 49.23742 | 6.45042 | 24307 ft | 448 kts | 6° |
| 2026-04-23 19:13 | 49.26849 | 6.45365 | 24306 ft | 447 kts | 6° |
| 2026-04-23 19:13 | 49.29950 | 6.45688 | 24305 ft | 447 kts | 6° |
| 2026-04-23 19:13 | 49.33057 | 6.46010 | 24305 ft | 448 kts | 6° |
| 2026-04-23 19:13 | 49.36185 | 6.45881 | 24283 ft | 454 kts | 353° |
| 2026-04-23 19:14 | 49.39226 | 6.44557 | 24289 ft | 457 kts | 339° |
| 2026-04-23 19:14 | 49.42113 | 6.42519 | 24296 ft | 456 kts | 336° |
| 2026-04-23 19:14 | 49.44971 | 6.40407 | 24300 ft | 456 kts | 336° |
| 2026-04-23 19:14 | 49.47860 | 6.38375 | 24292 ft | 456 kts | 339° |
| 2026-04-23 19:15 | 49.50800 | 6.36522 | 24292 ft | 458 kts | 340° |
| 2026-04-23 19:15 | 49.53689 | 6.34667 | 24290 ft | 434 kts | 339° |
| 2026-04-23 19:15 | 49.56383 | 6.32902 | 24283 ft | 420 kts | 339° |
| 2026-04-23 19:15 | 49.59160 | 6.31114 | 24289 ft | 448 kts | 339° |
| 2026-04-23 19:16 | 49.62071 | 6.29247 | 24298 ft | 453 kts | 339° |
| 2026-04-23 19:16 | 49.64993 | 6.27348 | 24300 ft | 458 kts | 339° |
| 2026-04-23 19:16 | 49.67927 | 6.25364 | 24301 ft | 459 kts | 338° |
| 2026-04-23 19:17 | 49.73739 | 6.21375 | 24299 ft | 457 kts | 338° |
| 2026-04-23 19:17 | 49.76665 | 6.19419 | 24302 ft | 459 kts | 338° |
| 2026-04-23 19:17 | 49.79595 | 6.17437 | 24305 ft | 460 kts | 338° |
| 2026-04-23 19:17 | 49.82522 | 6.15433 | 24306 ft | 459 kts | 338° |
| 2026-04-23 19:18 | 49.85437 | 6.13442 | 24309 ft | 457 kts | 338° |
| 2026-04-23 19:18 | 49.88392 | 6.11656 | 24309 ft | 456 kts | 341° |
| 2026-04-23 19:18 | 49.91384 | 6.09982 | 24317 ft | 459 kts | 342° |
| 2026-04-23 19:18 | 49.94390 | 6.08281 | 24325 ft | 459 kts | 341° |
| 2026-04-23 19:19 | 50.00358 | 6.04832 | 24331 ft | 456 kts | 341° |
| 2026-04-23 19:19 | 50.03339 | 6.03130 | 24332 ft | 457 kts | 341° |
| 2026-04-23 19:20 | 50.09319 | 5.99698 | 24336 ft | 459 kts | 341° |
| 2026-04-23 19:20 | 50.12309 | 5.97970 | 24330 ft | 457 kts | 341° |
| 2026-04-23 19:20 | 50.15260 | 5.96268 | 23883 ft | 444 kts | 341° |
| 2026-04-23 19:20 | 50.18100 | 5.94630 | 23335 ft | 427 kts | 341° |
| 2026-04-23 19:21 | 50.20859 | 5.93036 | 22795 ft | 418 kts | 341° |
| 2026-04-23 19:21 | 50.26292 | 5.89891 | 21745 ft | 415 kts | 341° |
| 2026-04-23 19:21 | 50.28984 | 5.88329 | 21234 ft | 410 kts | 341° |
| 2026-04-23 19:22 | 50.31645 | 5.86782 | 20736 ft | 405 kts | 341° |
| 2026-04-23 19:22 | 50.34273 | 5.85253 | 20245 ft | 401 kts | 341° |
| 2026-04-23 19:22 | 50.39461 | 5.82233 | 19366 ft | 401 kts | 341° |
| 2026-04-23 19:23 | 50.42110 | 5.80688 | 19358 ft | 411 kts | 341° |
| 2026-04-23 19:23 | 50.44792 | 5.79114 | 19360 ft | 412 kts | 341° |
| 2026-04-23 19:23 | 50.47476 | 5.77527 | 19364 ft | 413 kts | 341° |
| 2026-04-23 19:24 | 50.52728 | 5.74408 | 18772 ft | 383 kts | 341° |
| 2026-04-23 19:24 | 50.55220 | 5.72921 | 17345 ft | 380 kts | 341° |
| 2026-04-23 19:24 | 50.60041 | 5.70052 | 14993 ft | 363 kts | 340° |
| 2026-04-23 19:25 | 50.64630 | 5.67347 | 13596 ft | 343 kts | 341° |
| 2026-04-23 19:25 | 50.69312 | 5.64604 | 13359 ft | 368 kts | 341° |
| 2026-04-23 19:26 | 50.74159 | 5.61768 | 13357 ft | 373 kts | 341° |
| 2026-04-23 19:26 | 50.76591 | 5.60345 | 13350 ft | 373 kts | 341° |
| 2026-04-23 19:27 | 50.81450 | 5.57499 | 13350 ft | 372 kts | 341° |
| 2026-04-23 19:27 | 50.88735 | 5.53224 | 13356 ft | 372 kts | 341° |
| 2026-04-23 19:28 | 50.93587 | 5.50371 | 13359 ft | 372 kts | 341° |
| 2026-04-23 19:28 | 50.98338 | 5.47137 | 13345 ft | 375 kts | 326° |
| 2026-04-23 19:29 | 51.00172 | 5.44190 | 13355 ft | 379 kts | 310° |
| 2026-04-23 19:29 | 51.03114 | 5.37221 | 13354 ft | 380 kts | 303° |
| 2026-04-23 19:30 | 51.05747 | 5.30320 | 12587 ft | 343 kts | 303° |
| 2026-04-23 19:30 | 51.06923 | 5.27173 | 12198 ft | 320 kts | 302° |
| 2026-04-23 19:30 | 51.09061 | 5.21378 | 11430 ft | 291 kts | 302° |
| 2026-04-23 19:31 | 51.10075 | 5.18616 | 11056 ft | 289 kts | 302° |
| 2026-04-23 19:31 | 51.11096 | 5.15837 | 10699 ft | 292 kts | 302° |
| 2026-04-23 19:31 | 51.12122 | 5.13040 | 10344 ft | 293 kts | 302° |
| 2026-04-23 19:31 | 51.13148 | 5.10238 | 10100 ft | 292 kts | 302° |
| 2026-04-23 19:32 | 51.14167 | 5.07454 | 9569 ft | 290 kts | 302° |
| 2026-04-23 19:32 | 51.15162 | 5.04728 | 9183 ft | 287 kts | 302° |
| 2026-04-23 19:32 | 51.16175 | 5.01954 | 8797 ft | 285 kts | 302° |
| 2026-04-23 19:32 | 51.17168 | 4.99235 | 8423 ft | 283 kts | 302° |
| 2026-04-23 19:33 | 51.18154 | 4.96536 | 8050 ft | 281 kts | 302° |
| 2026-04-23 19:33 | 51.19115 | 4.93910 | 7677 ft | 279 kts | 302° |
| 2026-04-23 19:33 | 51.21065 | 4.88593 | 6951 ft | 277 kts | 302° |
| 2026-04-23 19:34 | 51.22046 | 4.85921 | 6571 ft | 275 kts | 302° |
| 2026-04-23 19:34 | 51.22931 | 4.83233 | 6367 ft | 267 kts | 296° |
| 2026-04-23 19:34 | 51.24163 | 4.78104 | 6356 ft | 229 kts | 292° |
| 2026-04-23 19:35 | 51.24680 | 4.75813 | 6361 ft | 217 kts | 292° |
| 2026-04-23 19:35 | 51.25189 | 4.73556 | 6367 ft | 218 kts | 292° |
| 2026-04-23 19:35 | 51.25708 | 4.71253 | 6370 ft | 223 kts | 292° |
| 2026-04-23 19:35 | 51.26233 | 4.68923 | 6372 ft | 223 kts | 292° |
| 2026-04-23 19:36 | 51.26756 | 4.66602 | 6372 ft | 222 kts | 292° |
| 2026-04-23 19:36 | 51.27278 | 4.64288 | 6372 ft | 221 kts | 292° |
| 2026-04-23 19:36 | 51.27799 | 4.61974 | 6371 ft | 221 kts | 292° |
| 2026-04-23 19:36 | 51.28302 | 4.59656 | 6369 ft | 221 kts | 288° |
| 2026-04-23 19:37 | 51.28630 | 4.57245 | 6372 ft | 224 kts | 283° |
| 2026-04-23 19:37 | 51.28910 | 4.54719 | 6176 ft | 241 kts | 282° |
| 2026-04-23 19:37 | 51.29202 | 4.52033 | 5942 ft | 247 kts | 282° |
| 2026-04-23 19:37 | 51.29491 | 4.49375 | 5695 ft | 240 kts | 282° |
| 2026-04-23 19:38 | 51.29772 | 4.46776 | 5439 ft | 235 kts | 282° |
| 2026-04-23 19:38 | 51.30047 | 4.44223 | 5185 ft | 231 kts | 282° |
| 2026-04-23 19:38 | 51.30314 | 4.41713 | 4922 ft | 227 kts | 282° |
| 2026-04-23 19:38 | 51.30574 | 4.39240 | 4663 ft | 225 kts | 282° |
| 2026-04-23 19:39 | 51.30829 | 4.36789 | 4404 ft | 222 kts | 282° |
| 2026-04-23 19:39 | 51.31080 | 4.34369 | 4149 ft | 220 kts | 282° |
| 2026-04-23 19:39 | 51.31328 | 4.31960 | 3892 ft | 219 kts | 282° |
| 2026-04-23 19:39 | 51.31574 | 4.29568 | 3640 ft | 218 kts | 282° |
| 2026-04-23 19:40 | 51.31732 | 4.27991 | 3479 ft | 217 kts | 282° |
| 2026-04-23 19:40 | 51.31971 | 4.25611 | 3227 ft | 216 kts | 282° |
| 2026-04-23 19:40 | 51.32211 | 4.23242 | 3006 ft | 215 kts | 282° |
| 2026-04-23 19:40 | 51.32446 | 4.20931 | 3001 ft | 209 kts | 282° |
| 2026-04-23 19:41 | 51.32680 | 4.18619 | 3002 ft | 214 kts | 282° |
| 2026-04-23 19:41 | 51.32920 | 4.16265 | 3007 ft | 215 kts | 282° |
| 2026-04-23 19:41 | 51.33164 | 4.13902 | 3007 ft | 215 kts | 282° |
| 2026-04-23 19:41 | 51.33402 | 4.11546 | 2999 ft | 215 kts | 282° |
| 2026-04-23 19:42 | 51.33639 | 4.09187 | 3009 ft | 215 kts | 282° |
| 2026-04-23 19:42 | 51.33873 | 4.06830 | 3008 ft | 214 kts | 282° |
| 2026-04-23 19:42 | 51.34108 | 4.04486 | 3003 ft | 213 kts | 282° |
| 2026-04-23 19:42 | 51.34344 | 4.02149 | 3006 ft | 213 kts | 282° |
| 2026-04-23 19:43 | 51.34577 | 3.99814 | 3008 ft | 213 kts | 282° |
| 2026-04-23 19:43 | 51.34814 | 3.97442 | 3007 ft | 222 kts | 282° |
| 2026-04-23 19:43 | 51.35074 | 3.94906 | 3010 ft | 236 kts | 282° |
| 2026-04-23 19:43 | 51.35338 | 3.92320 | 3008 ft | 236 kts | 282° |
| 2026-04-23 19:44 | 51.35602 | 3.89735 | 3006 ft | 235 kts | 282° |
| 2026-04-23 19:44 | 51.35861 | 3.87203 | 2995 ft | 228 kts | 282° |
| 2026-04-23 19:44 | 51.35903 | 3.84657 | 2982 ft | 238 kts | 257° |
| 2026-04-23 19:44 | 51.34973 | 3.82474 | 2988 ft | 243 kts | 216° |
| 2026-04-23 19:45 | 51.33398 | 3.81668 | 2996 ft | 240 kts | 176° |
| 2026-04-23 19:45 | 51.31885 | 3.82562 | 2994 ft | 233 kts | 137° |
| 2026-04-23 19:45 | 51.31025 | 3.84664 | 3001 ft | 225 kts | 107° |
| 2026-04-23 19:45 | 51.30791 | 3.87114 | 3007 ft | 223 kts | 91° |
| 2026-04-23 19:46 | 51.30609 | 3.89570 | 3012 ft | 224 kts | 98° |
| 2026-04-23 19:46 | 51.30206 | 3.91971 | 3010 ft | 223 kts | 104° |
| 2026-04-23 19:46 | 51.29738 | 3.94339 | 3008 ft | 223 kts | 104° |
| 2026-04-23 19:46 | 51.29300 | 3.96702 | 3009 ft | 221 kts | 103° |
| 2026-04-23 19:47 | 51.28888 | 3.98983 | 2996 ft | 207 kts | 102° |
| 2026-04-23 19:47 | 51.28498 | 4.01146 | 2990 ft | 200 kts | 103° |
| 2026-04-23 19:47 | 51.28111 | 4.03283 | 2991 ft | 201 kts | 103° |
| 2026-04-23 19:47 | 51.27721 | 4.05430 | 2993 ft | 203 kts | 102° |
| 2026-04-23 19:48 | 51.27325 | 4.07601 | 2997 ft | 204 kts | 103° |
| 2026-04-23 19:48 | 51.26928 | 4.09770 | 2998 ft | 203 kts | 103° |
| 2026-04-23 19:48 | 51.26535 | 4.11922 | 3000 ft | 201 kts | 103° |
| 2026-04-23 19:48 | 51.26144 | 4.14064 | 2999 ft | 201 kts | 103° |
| 2026-04-23 19:49 | 51.25750 | 4.16212 | 2994 ft | 202 kts | 103° |
| 2026-04-23 19:49 | 51.25304 | 4.18344 | 2995 ft | 203 kts | 108° |
| 2026-04-23 19:49 | 51.24818 | 4.20465 | 2997 ft | 204 kts | 107° |
| 2026-04-23 19:49 | 51.24340 | 4.22593 | 2997 ft | 203 kts | 107° |
| 2026-04-23 19:50 | 51.23865 | 4.24710 | 2994 ft | 201 kts | 107° |
| 2026-04-23 19:50 | 51.23393 | 4.26801 | 2892 ft | 202 kts | 107° |
| 2026-04-23 19:50 | 51.22949 | 4.28762 | 2615 ft | 175 kts | 107° |
| 2026-04-23 19:50 | 51.22573 | 4.30424 | 2387 ft | 144 kts | 106° |
| 2026-04-23 19:51 | 51.22255 | 4.31842 | 2137 ft | 128 kts | 105° |
| 2026-04-23 19:51 | 51.21967 | 4.33132 | 1931 ft | 121 kts | 104° |
| 2026-04-23 19:51 | 51.21687 | 4.34381 | 1751 ft | 118 kts | 103° |
| 2026-04-23 19:51 | 51.21412 | 4.35613 | 1565 ft | 119 kts | 104° |
| 2026-04-23 19:52 | 51.21130 | 4.36864 | 1379 ft | 120 kts | 103° |
| 2026-04-23 19:52 | 51.20845 | 4.38127 | 1188 ft | 121 kts | 103° |
| 2026-04-23 19:52 | 51.20562 | 4.39378 | 999 ft | 120 kts | 102° |
| 2026-04-23 19:52 | 51.20288 | 4.40601 | 798 ft | 116 kts | 103° |
| 2026-04-23 19:53 | 51.20016 | 4.41794 | 632 ft | 114 kts | 104° |
| 2026-04-23 19:53 | 51.19753 | 4.42980 | 455 ft | 113 kts | 105° |
| 2026-04-23 19:53 | 51.19486 | 4.44150 | 291 ft | 114 kts | 105° |
| 2026-04-23 19:53 | 51.19213 | 4.45346 | 91 ft | 112 kts | 106° |
| 2026-04-23 19:54 | 51.18992 | 4.46343 | 37 ft | 67 kts | 109° |
| 2026-04-23 19:54 | 51.18874 | 4.46863 | 35 ft | 41 kts | 109° |
| 2026-04-23 19:54 | 51.18819 | 4.47100 | 33 ft | 14 kts | 126° |
| 2026-04-23 19:54 | 51.18729 | 4.47112 | 35 ft | 12 kts | 167° |
| 2026-04-23 19:55 | 51.18658 | 4.47044 | 34 ft | 15 kts | 233° |
| 2026-04-23 19:55 | 51.18609 | 4.46927 | 34 ft | 9 kts | 243° |
| 2026-04-23 19:55 | 51.18581 | 4.46801 | 34 ft | 15 kts | 260° |
| 2026-04-23 19:55 | 51.18583 | 4.46612 | 34 ft | 20 kts | 282° |
| 2026-04-23 19:56 | 51.18621 | 4.46372 | 35 ft | 24 kts | 284° |
| 2026-04-23 19:56 | 51.18667 | 4.46088 | 35 ft | 28 kts | 284° |
| 2026-04-23 19:56 | 51.18708 | 4.45824 | 35 ft | 25 kts | 284° |
| 2026-04-23 19:56 | 51.18749 | 4.45566 | 35 ft | 18 kts | 283° |
| 2026-04-23 19:57 | 51.18756 | 4.45451 | 34 ft | 9 kts | 236° |
| 2026-04-23 19:57 | 51.18715 | 4.45450 | 34 ft | 4 kts | 68° |
| 2026-04-23 19:57 | 51.18727 | 4.45470 | 34 ft | 0 kts | 39° |